Wetterdaten: Woche 04.07.16 - 10.07.16 (KW27)
Datum Zeit Temp. A. Feuchte A. Luftdruck Regen Wind Richtung Taupunkt Windchill Windben
04.07.2016 00:00 12,9 C 84 % 1022,9 hPa 0,0 l/m 0,0 km/h (0 Bft) N 10,3 C 12,9 C 0,1 km/h (0 Bft)
04.07.2016 01:00 12,5 C 87 % 1022,6 hPa 0,0 l/m 0,0 km/h (0 Bft) N 10,4 C 12,5 C 0,1 km/h (0 Bft)
04.07.2016 02:00 12,3 C 88 % 1022,2 hPa 0,0 l/m 0,0 km/h (0 Bft) N 10,5 C 12,3 C 0,1 km/h (0 Bft)
04.07.2016 03:00 12,3 C 90 % 1021,7 hPa 0,0 l/m 0,0 km/h (0 Bft) N 10,6 C 12,3 C 0,0 km/h (0 Bft)
04.07.2016 04:00 12,1 C 90 % 1021,5 hPa 0,0 l/m 0,0 km/h (0 Bft) N 10,6 C 12,1 C 0,0 km/h (0 Bft)
04.07.2016 05:00 11,9 C 91 % 1021,4 hPa 0,0 l/m 0,0 km/h (0 Bft) N 10,5 C 11,9 C 0,1 km/h (0 Bft)
04.07.2016 06:00 11,8 C 92 % 1021,3 hPa 0,0 l/m 0,0 km/h (0 Bft) N 10,6 C 11,8 C 0,1 km/h (0 Bft)
04.07.2016 07:00 12,6 C 91 % 1021,3 hPa 0,0 l/m 0,4 km/h (0 Bft) SW 11,2 C 12,6 C 1,1 km/h (0 Bft)
04.07.2016 08:00 14,4 C 84 % 1021,0 hPa 0,0 l/m 0,5 km/h (0 Bft) SW 11,7 C 14,4 C 1,5 km/h (1 Bft)
04.07.2016 09:00 17,6 C 70 % 1020,8 hPa 0,0 l/m 2,3 km/h (1 Bft) O-NO 12,1 C 17,6 C 4,4 km/h (1 Bft)
04.07.2016 10:00 19,3 C 61 % 1020,7 hPa 0,0 l/m 3,5 km/h (1 Bft) O-NO 11,7 C 19,3 C 6,5 km/h (2 Bft)
04.07.2016 11:00 20,7 C 57 % 1020,4 hPa 0,0 l/m 2,7 km/h (1 Bft) O-NO 11,8 C 20,7 C 5,1 km/h (1 Bft)
04.07.2016 12:00 21,9 C 54 % 1020,1 hPa 0,0 l/m 3,5 km/h (1 Bft) O-NO 12,0 C 21,9 C 6,4 km/h (2 Bft)
04.07.2016 13:00 22,9 C 51 % 1019,7 hPa 0,0 l/m 3,5 km/h (1 Bft) NO 12,2 C 22,9 C 6,4 km/h (2 Bft)
04.07.2016 14:00 23,3 C 51 % 1019,3 hPa 0,0 l/m 4,1 km/h (1 Bft) O-NO 12,6 C 23,2 C 7,3 km/h (2 Bft)
04.07.2016 15:00 23,1 C 51 % 1018,9 hPa 0,0 l/m 3,6 km/h (1 Bft) O 12,4 C 23,1 C 5,9 km/h (2 Bft)
04.07.2016 16:00 23,2 C 52 % 1018,5 hPa 0,0 l/m 1,9 km/h (1 Bft) NO 12,9 C 23,2 C 3,7 km/h (1 Bft)
04.07.2016 17:00 24,5 C 49 % 1018,1 hPa 0,0 l/m 2,3 km/h (1 Bft) O-NO 13,1 C 24,5 C 4,3 km/h (1 Bft)
04.07.2016 18:00 24,4 C 48 % 1017,7 hPa 0,0 l/m 2,4 km/h (1 Bft) S-SW 12,6 C 24,4 C 4,6 km/h (1 Bft)
04.07.2016 19:00 22,7 C 54 % 1017,6 hPa 0,0 l/m 1,8 km/h (1 Bft) W-SW 12,8 C 22,7 C 5,5 km/h (2 Bft)
04.07.2016 20:00 21,0 C 61 % 1017,5 hPa 0,0 l/m 0,9 km/h (0 Bft) W-SW 13,2 C 21,0 C 2,7 km/h (1 Bft)
04.07.2016 21:00 19,1 C 70 % 1017,4 hPa 0,0 l/m 0,3 km/h (0 Bft) W-SW 13,5 C 19,1 C 1,4 km/h (1 Bft)
04.07.2016 22:00 16,3 C 82 % 1017,5 hPa 0,0 l/m 0,0 km/h (0 Bft) W-SW 13,1 C 16,3 C 0,0 km/h (0 Bft)
04.07.2016 23:00 14,6 C 87 % 1017,4 hPa 0,0 l/m 0,0 km/h (0 Bft) W-SW 12,5 C 14,6 C 0,0 km/h (0 Bft)
05.07.2016 09:00 19,8 C 73 % 1016,5 hPa 0,0 l/m 5,2 km/h (1 Bft) O-NO 14,7 C 19,8 C 10,1 km/h (2 Bft)
05.07.2016 10:00 20,2 C 70 % 1016,5 hPa 0,0 l/m 4,6 km/h (1 Bft) O-NO 14,5 C 20,2 C 8,7 km/h (2 Bft)
05.07.2016 11:00 21,3 C 63 % 1016,6 hPa 0,0 l/m 6,2 km/h (2 Bft) O-NO 13,8 C 21,1 C 12,3 km/h (2 Bft)
05.07.2016 12:00 22,3 C 54 % 1016,7 hPa 0,0 l/m 6,6 km/h (2 Bft) O-NO 12,7 C 22,0 C 12,0 km/h (2 Bft)
05.07.2016 13:00 22,5 C 57 % 1016,5 hPa 0,0 l/m 5,2 km/h (1 Bft) O-NO 13,4 C 22,4 C 10,3 km/h (2 Bft)
05.07.2016 14:00 22,3 C 58 % 1016,2 hPa 0,0 l/m 5,9 km/h (2 Bft) O-NO 13,7 C 22,2 C 11,4 km/h (2 Bft)
05.07.2016 15:00 22,2 C 58 % 1016,0 hPa 0,0 l/m 4,7 km/h (1 Bft) O 13,7 C 22,2 C 9,4 km/h (2 Bft)
05.07.2016 16:00 22,3 C 57 % 1016,1 hPa 0,0 l/m 4,8 km/h (1 Bft) O-NO 13,2 C 22,2 C 9,4 km/h (2 Bft)
05.07.2016 17:00 21,9 C 56 % 1016,1 hPa 0,0 l/m 4,3 km/h (1 Bft) O-NO 12,7 C 21,9 C 8,5 km/h (2 Bft)
05.07.2016 18:00 21,8 C 54 % 1016,3 hPa 0,0 l/m 4,9 km/h (1 Bft) O-NO 12,0 C 21,8 C 12,2 km/h (2 Bft)
05.07.2016 19:00 20,8 C 54 % 1016,2 hPa 0,0 l/m 3,7 km/h (1 Bft) O-NO 11,2 C 20,8 C 9,8 km/h (2 Bft)
05.07.2016 20:00 19,4 C 59 % 1016,5 hPa 0,0 l/m 1,8 km/h (1 Bft) O 11,3 C 19,4 C 6,1 km/h (2 Bft)
05.07.2016 21:00 18,1 C 65 % 1016,8 hPa 0,0 l/m 0,9 km/h (0 Bft) NO 11,4 C 18,1 C 3,0 km/h (1 Bft)
05.07.2016 22:00 15,6 C 76 % 1017,4 hPa 0,0 l/m 0,2 km/h (0 Bft) S 11,4 C 15,6 C 1,5 km/h (1 Bft)
05.07.2016 23:00 14,9 C 81 % 1017,8 hPa 0,0 l/m 0,4 km/h (0 Bft) S 11,6 C 14,9 C 2,1 km/h (1 Bft)
06.07.2016 00:00 15,2 C 81 % 1018,0 hPa 0,0 l/m 0,3 km/h (0 Bft) N 12,0 C 15,2 C 1,0 km/h (0 Bft)
06.07.2016 01:00 14,5 C 84 % 1018,1 hPa 0,0 l/m 0,1 km/h (0 Bft) N 11,8 C 14,5 C 0,7 km/h (0 Bft)
06.07.2016 02:00 14,0 C 87 % 1018,3 hPa 0,0 l/m 0,1 km/h (0 Bft) N 11,8 C 14,0 C 0,5 km/h (0 Bft)
06.07.2016 03:00 14,4 C 82 % 1018,3 hPa 0,0 l/m 0,3 km/h (0 Bft) S-SO 11,4 C 14,4 C 1,5 km/h (1 Bft)
06.07.2016 04:00 14,6 C 77 % 1018,4 hPa 0,0 l/m 0,5 km/h (0 Bft) N 10,6 C 14,6 C 1,4 km/h (1 Bft)
06.07.2016 05:00 13,6 C 80 % 1018,4 hPa 0,0 l/m 0,2 km/h (0 Bft) N 10,3 C 13,6 C 0,9 km/h (0 Bft)
06.07.2016 06:00 12,6 C 86 % 1018,6 hPa 0,0 l/m 0,0 km/h (0 Bft) N 10,3 C 12,6 C 0,3 km/h (0 Bft)
06.07.2016 07:00 13,6 C 85 % 1018,9 hPa 0,0 l/m 0,6 km/h (0 Bft) O-SO 11,1 C 13,6 C 1,6 km/h (1 Bft)
06.07.2016 08:00 15,2 C 78 % 1019,2 hPa 0,0 l/m 2,9 km/h (1 Bft) O 11,3 C 15,2 C 5,1 km/h (1 Bft)
06.07.2016 09:00 16,9 C 69 % 1019,3 hPa 0,0 l/m 3,3 km/h (1 Bft) O-NO 11,2 C 16,8 C 6,4 km/h (2 Bft)
06.07.2016 10:00 17,6 C 65 % 1019,5 hPa 0,0 l/m 3,1 km/h (1 Bft) O-NO 10,9 C 17,6 C 5,6 km/h (2 Bft)
06.07.2016 11:00 18,5 C 61 % 1019,7 hPa 0,0 l/m 4,0 km/h (1 Bft) O 10,9 C 18,4 C 7,8 km/h (2 Bft)
06.07.2016 12:00 18,9 C 58 % 1019,9 hPa 0,0 l/m 3,9 km/h (1 Bft) O-NO 10,4 C 18,8 C 7,7 km/h (2 Bft)
06.07.2016 13:00 19,9 C 53 % 1019,8 hPa 0,0 l/m 4,2 km/h (1 Bft) NO 9,9 C 19,9 C 7,8 km/h (2 Bft)
06.07.2016 14:00 20,7 C 50 % 1019,6 hPa 0,0 l/m 4,0 km/h (1 Bft) O 10,0 C 20,7 C 7,1 km/h (2 Bft)
06.07.2016 15:00 20,9 C 49 % 1019,7 hPa 0,0 l/m 4,4 km/h (1 Bft) O-NO 9,7 C 20,8 C 8,3 km/h (2 Bft)
06.07.2016 16:00 21,6 C 48 % 1019,5 hPa 0,0 l/m 3,1 km/h (1 Bft) O-NO 10,0 C 21,6 C 6,1 km/h (2 Bft)
06.07.2016 17:00 21,7 C 47 % 1019,1 hPa 0,0 l/m 4,0 km/h (1 Bft) O-NO 10,0 C 21,7 C 9,7 km/h (2 Bft)
06.07.2016 18:00 21,4 C 47 % 1019,2 hPa 0,0 l/m 3,2 km/h (1 Bft) O-NO 9,7 C 21,4 C 6,0 km/h (2 Bft)
06.07.2016 19:00 19,9 C 50 % 1019,3 hPa 0,0 l/m 2,4 km/h (1 Bft) O-NO 9,2 C 19,9 C 4,8 km/h (1 Bft)
06.07.2016 20:00 18,3 C 57 % 1019,6 hPa 0,0 l/m 1,1 km/h (1 Bft) O-NO 9,7 C 18,3 C 2,3 km/h (1 Bft)
06.07.2016 21:00 16,1 C 68 % 1019,8 hPa 0,0 l/m 0,0 km/h (0 Bft) O-NO 10,1 C 16,1 C 0,3 km/h (0 Bft)
06.07.2016 22:00 13,1 C 80 % 1020,6 hPa 0,0 l/m 0,1 km/h (0 Bft) O-NO 9,8 C 13,1 C 0,5 km/h (0 Bft)
06.07.2016 23:00 11,1 C 86 % 1020,8 hPa 0,0 l/m 0,0 km/h (0 Bft) O-NO 8,9 C 11,1 C 0,7 km/h (0 Bft)
07.07.2016 00:00 10,3 C 89 % 1021,0 hPa 0,0 l/m 0,0 km/h (0 Bft) O-NO 8,5 C 10,3 C 0,4 km/h (0 Bft)
07.07.2016 01:00 9,2 C 92 % 1021,0 hPa 0,0 l/m 0,0 km/h (0 Bft) O-NO 7,9 C 9,2 C 0,0 km/h (0 Bft)
07.07.2016 02:00 8,5 C 93 % 1020,8 hPa 0,0 l/m 0,0 km/h (0 Bft) O-NO 7,4 C 8,5 C 0,0 km/h (0 Bft)
07.07.2016 03:00 8,0 C 94 % 1020,6 hPa 0,0 l/m 0,0 km/h (0 Bft) N 7,0 C 8,0 C 0,0 km/h (0 Bft)
07.07.2016 04:00 7,6 C 94 % 1020,6 hPa 0,0 l/m 0,0 km/h (0 Bft) N 6,7 C 7,6 C 0,0 km/h (0 Bft)
07.07.2016 05:00 7,1 C 95 % 1020,8 hPa 0,0 l/m 0,0 km/h (0 Bft) N 6,3 C 7,1 C 0,0 km/h (0 Bft)
07.07.2016 06:00 6,9 C 95 % 1021,0 hPa 0,0 l/m 0,0 km/h (0 Bft) O-NO 6,2 C 6,9 C 0,1 km/h (0 Bft)
07.07.2016 07:00 9,2 C 94 % 1021,2 hPa 0,0 l/m 0,3 km/h (0 Bft) O-NO 8,3 C 9,2 C 1,6 km/h (1 Bft)
07.07.2016 08:00 15,6 C 77 % 1021,3 hPa 0,0 l/m 0,8 km/h (0 Bft) O-NO 11,4 C 15,6 C 2,4 km/h (1 Bft)
07.07.2016 09:00 19,0 C 61 % 1021,2 hPa 0,0 l/m 1,4 km/h (1 Bft) O-NO 11,2 C 19,0 C 3,5 km/h (1 Bft)
07.07.2016 10:00 20,7 C 51 % 1021,2 hPa 0,0 l/m 2,2 km/h (1 Bft) NW 10,1 C 20,7 C 5,5 km/h (2 Bft)
07.07.2016 11:00 21,4 C 48 % 1020,8 hPa 0,0 l/m 2,4 km/h (1 Bft) S-SO 9,9 C 21,4 C 5,7 km/h (2 Bft)
07.07.2016 12:00 22,5 C 47 % 1020,6 hPa 0,0 l/m 3,5 km/h (1 Bft) NW 10,7 C 22,5 C 6,5 km/h (2 Bft)
07.07.2016 13:00 23,0 C 45 % 1020,5 hPa 0,0 l/m 3,0 km/h (1 Bft) NO 10,5 C 23,0 C 5,5 km/h (2 Bft)
07.07.2016 14:00 24,2 C 43 % 1019,9 hPa 0,0 l/m 3,6 km/h (1 Bft) NO 10,7 C 24,2 C 6,0 km/h (2 Bft)
07.07.2016 15:00 24,5 C 42 % 1019,5 hPa 0,0 l/m 3,4 km/h (1 Bft) N-NO 10,6 C 24,5 C 7,0 km/h (2 Bft)
07.07.2016 16:00 25,5 C 41 % 1019,1 hPa 0,0 l/m 3,2 km/h (1 Bft) NO 11,2 C 25,5 C 7,8 km/h (2 Bft)
07.07.2016 17:00 25,8 C 40 % 1018,6 hPa 0,0 l/m 3,1 km/h (1 Bft) NW 11,3 C 25,8 C 6,0 km/h (2 Bft)
07.07.2016 18:00 25,2 C 42 % 1018,4 hPa 0,0 l/m 3,2 km/h (1 Bft) NW 11,2 C 25,2 C 6,2 km/h (2 Bft)
07.07.2016 19:00 23,4 C 47 % 1018,2 hPa 0,0 l/m 3,3 km/h (1 Bft) W 11,5 C 23,4 C 6,1 km/h (2 Bft)
07.07.2016 20:00 21,8 C 52 % 1018,2 hPa 0,0 l/m 1,5 km/h (1 Bft) W-SW 11,4 C 21,8 C 3,1 km/h (1 Bft)
07.07.2016 21:00 19,1 C 62 % 1018,4 hPa 0,0 l/m 0,1 km/h (0 Bft) N 11,6 C 19,1 C 0,4 km/h (0 Bft)
07.07.2016 22:00 15,9 C 76 % 1018,7 hPa 0,0 l/m 0,0 km/h (0 Bft) N 11,6 C 15,9 C 0,1 km/h (0 Bft)
07.07.2016 23:00 14,1 C 82 % 1018,8 hPa 0,0 l/m 0,0 km/h (0 Bft) N 11,0 C 14,1 C 0,1 km/h (0 Bft)
08.07.2016 00:00 12,7 C 87 % 1018,7 hPa 0,0 l/m 0,0 km/h (0 Bft) N 10,5 C 12,7 C 0,1 km/h (0 Bft)
08.07.2016 01:00 12,1 C 88 % 1018,3 hPa 0,0 l/m 0,0 km/h (0 Bft) N 10,2 C 12,1 C 0,0 km/h (0 Bft)
08.07.2016 02:00 11,4 C 90 % 1018,2 hPa 0,0 l/m 0,0 km/h (0 Bft) N 9,8 C 11,4 C 0,0 km/h (0 Bft)
08.07.2016 03:00 10,9 C 91 % 1017,8 hPa 0,0 l/m 0,0 km/h (0 Bft) N 9,5 C 10,9 C 0,0 km/h (0 Bft)
08.07.2016 04:00 9,9 C 93 % 1017,0 hPa 0,0 l/m 0,0 km/h (0 Bft) N 8,7 C 9,9 C 0,0 km/h (0 Bft)
08.07.2016 05:00 9,3 C 94 % 1017,1 hPa 0,0 l/m 0,0 km/h (0 Bft) N 8,3 C 9,3 C 0,0 km/h (0 Bft)
08.07.2016 06:00 9,4 C 95 % 1017,1 hPa 0,0 l/m 0,0 km/h (0 Bft) N 8,7 C 9,4 C 0,0 km/h (0 Bft)
08.07.2016 07:00 10,0 C 95 % 1017,1 hPa 0,0 l/m 0,0 km/h (0 Bft) N 9,2 C 10,0 C 0,0 km/h (0 Bft)
08.07.2016 08:00 17,5 C 78 % 1016,7 hPa 0,0 l/m 0,4 km/h (0 Bft) N 13,7 C 17,5 C 0,7 km/h (0 Bft)
08.07.2016 09:00 21,7 C 59 % 1016,4 hPa 0,0 l/m 3,8 km/h (1 Bft) NO 13,3 C 21,7 C 6,5 km/h (2 Bft)
08.07.2016 10:00 23,3 C 53 % 1016,4 hPa 0,0 l/m 5,5 km/h (2 Bft) O-NO 13,0 C 23,2 C 10,2 km/h (2 Bft)
08.07.2016 11:00 24,4 C 47 % 1016,3 hPa 0,0 l/m 5,7 km/h (2 Bft) O-NO 12,4 C 24,2 C 10,4 km/h (2 Bft)
08.07.2016 12:00 25,2 C 43 % 1016,0 hPa 0,0 l/m 7,3 km/h (2 Bft) O-NO 11,8 C 24,9 C 13,0 km/h (3 Bft)
08.07.2016 13:00 25,9 C 40 % 1015,9 hPa 0,0 l/m 6,1 km/h (2 Bft) O-NO 11,3 C 25,8 C 11,2 km/h (2 Bft)
08.07.2016 14:00 27,0 C 37 % 1015,7 hPa 0,0 l/m 5,4 km/h (1 Bft) O-NO 11,0 C 26,9 C 10,7 km/h (2 Bft)
08.07.2016 15:00 27,4 C 36 % 1015,7 hPa 0,0 l/m 5,8 km/h (2 Bft) NO 11,2 C 27,3 C 12,0 km/h (2 Bft)
08.07.2016 16:00 27,6 C 36 % 1015,3 hPa 0,0 l/m 5,6 km/h (2 Bft) O-NO 11,1 C 27,5 C 11,6 km/h (2 Bft)
08.07.2016 17:00 27,9 C 36 % 1015,3 hPa 0,0 l/m 5,4 km/h (2 Bft) O-NO 11,6 C 27,8 C 11,0 km/h (2 Bft)
08.07.2016 18:00 26,8 C 39 % 1015,6 hPa 0,0 l/m 5,2 km/h (1 Bft) O 11,8 C 26,8 C 12,7 km/h (3 Bft)
08.07.2016 19:00 24,9 C 41 % 1016,0 hPa 0,0 l/m 3,0 km/h (1 Bft) O 10,6 C 24,9 C 9,3 km/h (2 Bft)
08.07.2016 20:00 23,4 C 49 % 1016,5 hPa 0,0 l/m 0,8 km/h (0 Bft) SO 12,1 C 23,4 C 3,0 km/h (1 Bft)
08.07.2016 21:00 21,8 C 58 % 1016,9 hPa 0,0 l/m 0,0 km/h (0 Bft) SO 13,1 C 21,8 C 0,1 km/h (0 Bft)
08.07.2016 22:00 19,4 C 69 % 1017,5 hPa 0,0 l/m 0,1 km/h (0 Bft) SO 13,6 C 19,4 C 0,3 km/h (0 Bft)
08.07.2016 23:00 17,6 C 76 % 1017,6 hPa 0,0 l/m 0,0 km/h (0 Bft) SO 13,4 C 17,6 C 0,0 km/h (0 Bft)
09.07.2016 00:00 17,0 C 79 % 1017,7 hPa 0,0 l/m 0,0 km/h (0 Bft) SO 13,3 C 17,0 C 0,1 km/h (0 Bft)
09.07.2016 01:00 16,5 C 81 % 1017,8 hPa 0,0 l/m 0,0 km/h (0 Bft) SO 13,3 C 16,5 C 0,4 km/h (0 Bft)
09.07.2016 02:00 17,4 C 77 % 1018,4 hPa 0,0 l/m 0,5 km/h (0 Bft) SO 13,4 C 17,4 C 2,4 km/h (1 Bft)
09.07.2016 03:00 17,9 C 74 % 1018,4 hPa 0,0 l/m 0,4 km/h (0 Bft) O-SO 13,3 C 17,9 C 2,2 km/h (1 Bft)
09.07.2016 04:00 17,8 C 72 % 1018,3 hPa 0,0 l/m 1,8 km/h (1 Bft) O 12,7 C 17,8 C 7,0 km/h (2 Bft)
09.07.2016 05:00 17,9 C 67 % 1018,4 hPa 0,0 l/m 3,0 km/h (1 Bft) O-NO 11,6 C 17,9 C 10,0 km/h (2 Bft)
09.07.2016 06:00 17,7 C 68 % 1018,5 hPa 0,0 l/m 2,0 km/h (1 Bft) O 11,7 C 17,7 C 5,2 km/h (1 Bft)
09.07.2016 07:00 17,4 C 73 % 1018,8 hPa 0,0 l/m 1,7 km/h (1 Bft) W-NW 12,4 C 17,4 C 4,8 km/h (1 Bft)
09.07.2016 08:00 17,8 C 73 % 1019,3 hPa 0,0 l/m 2,2 km/h (1 Bft) NO 12,9 C 17,8 C 5,3 km/h (1 Bft)
09.07.2016 09:00 19,0 C 70 % 1019,3 hPa 0,0 l/m 3,1 km/h (1 Bft) NO 13,4 C 19,0 C 6,9 km/h (2 Bft)
09.07.2016 10:00 21,9 C 61 % 1019,2 hPa 0,0 l/m 4,3 km/h (1 Bft) O-NO 14,1 C 21,9 C 12,1 km/h (2 Bft)
09.07.2016 11:00 23,8 C 54 % 1019,2 hPa 0,0 l/m 4,9 km/h (1 Bft) O-NO 14,0 C 23,8 C 12,5 km/h (2 Bft)
09.07.2016 12:00 23,9 C 54 % 1019,2 hPa 0,0 l/m 4,5 km/h (1 Bft) O-NO 13,9 C 23,9 C 10,6 km/h (2 Bft)
09.07.2016 13:00 24,2 C 50 % 1019,0 hPa 0,0 l/m 4,9 km/h (1 Bft) NO 13,1 C 24,2 C 13,0 km/h (3 Bft)
09.07.2016 14:00 25,6 C 42 % 1018,7 hPa 0,0 l/m 5,7 km/h (2 Bft) O 11,8 C 25,5 C 14,0 km/h (3 Bft)
09.07.2016 15:00 25,7 C 39 % 1018,5 hPa 0,0 l/m 5,3 km/h (1 Bft) O-NO 10,7 C 25,6 C 13,8 km/h (3 Bft)
09.07.2016 16:00 25,9 C 41 % 1018,4 hPa 0,0 l/m 5,6 km/h (2 Bft) O-NO 11,7 C 25,9 C 15,8 km/h (3 Bft)
09.07.2016 17:00 25,9 C 44 % 1018,0 hPa 0,0 l/m 4,2 km/h (1 Bft) O-NO 12,8 C 25,9 C 11,5 km/h (2 Bft)
09.07.2016 18:00 25,8 C 45 % 1017,7 hPa 0,0 l/m 4,0 km/h (1 Bft) N-NO 13,1 C 25,8 C 9,4 km/h (2 Bft)
09.07.2016 19:00 24,2 C 50 % 1017,6 hPa 0,0 l/m 3,4 km/h (1 Bft) O-NO 13,1 C 24,2 C 10,1 km/h (2 Bft)
09.07.2016 20:00 22,5 C 57 % 1017,6 hPa 0,0 l/m 1,4 km/h (1 Bft) O 13,4 C 22,5 C 4,1 km/h (1 Bft)
09.07.2016 21:00 20,7 C 64 % 1017,7 hPa 0,0 l/m 0,1 km/h (0 Bft) S-SO 13,7 C 20,7 C 0,5 km/h (0 Bft)
09.07.2016 22:00 17,7 C 77 % 1017,8 hPa 0,0 l/m 0,3 km/h (0 Bft) S-SO 13,5 C 17,7 C 1,3 km/h (1 Bft)
09.07.2016 23:00 15,8 C 83 % 1017,8 hPa 0,0 l/m 0,2 km/h (0 Bft) S-SO 12,8 C 15,8 C 0,9 km/h (0 Bft)
10.07.2016 00:00 14,8 C 86 % 1017,7 hPa 0,0 l/m 0,1 km/h (0 Bft) S-SO 12,5 C 14,8 C 0,8 km/h (0 Bft)
10.07.2016 01:00 13,9 C 89 % 1017,4 hPa 0,0 l/m 0,2 km/h (0 Bft) S-SO 12,1 C 13,9 C 1,1 km/h (0 Bft)
10.07.2016 02:00 13,1 C 91 % 1016,7 hPa 0,0 l/m 0,0 km/h (0 Bft) S-SO 11,7 C 13,1 C 0,0 km/h (0 Bft)
10.07.2016 03:00 12,6 C 92 % 1016,4 hPa 0,0 l/m 0,0 km/h (0 Bft) S-SO 11,4 C 12,6 C 0,2 km/h (0 Bft)
10.07.2016 04:00 12,0 C 93 % 1016,1 hPa 0,0 l/m 0,0 km/h (0 Bft) S-SO 10,9 C 12,0 C 0,0 km/h (0 Bft)
10.07.2016 05:00 11,5 C 94 % 1016,0 hPa 0,0 l/m 0,0 km/h (0 Bft) S-SO 10,6 C 11,5 C 0,0 km/h (0 Bft)
10.07.2016 06:00 11,5 C 95 % 1015,9 hPa 0,0 l/m 0,0 km/h (0 Bft) NW 10,8 C 11,5 C 0,1 km/h (0 Bft)
10.07.2016 07:00 14,2 C 91 % 1015,9 hPa 0,0 l/m 0,1 km/h (0 Bft) NW 12,7 C 14,2 C 0,7 km/h (0 Bft)
10.07.2016 08:00 20,8 C 70 % 1015,5 hPa 0,0 l/m 0,8 km/h (0 Bft) NW 15,1 C 20,8 C 2,9 km/h (1 Bft)
10.07.2016 09:00 23,8 C 59 % 1015,1 hPa 0,0 l/m 1,6 km/h (1 Bft) W 15,3 C 23,8 C 3,8 km/h (1 Bft)
10.07.2016 10:00 26,0 C 53 % 1014,6 hPa 0,0 l/m 2,2 km/h (1 Bft) NO 15,6 C 26,0 C 5,3 km/h (1 Bft)
10.07.2016 11:00 27,3 C 48 % 1013,9 hPa 0,0 l/m 3,7 km/h (1 Bft) O 15,3 C 27,3 C 8,3 km/h (2 Bft)
10.07.2016 12:00 28,2 C 45 % 1013,4 hPa 0,0 l/m 3,5 km/h (1 Bft) O 14,9 C 28,2 C 7,8 km/h (2 Bft)
10.07.2016 13:00 29,7 C 41 % 1012,6 hPa 0,0 l/m 3,4 km/h (1 Bft) NO 15,0 C 29,7 C 7,2 km/h (2 Bft)
10.07.2016 14:00 30,8 C 40 % 1011,8 hPa 0,0 l/m 2,9 km/h (1 Bft) N-NW 15,5 C 30,8 C 6,7 km/h (2 Bft)
10.07.2016 15:00 31,5 C 40 % 1011,3 hPa 0,0 l/m 3,9 km/h (1 Bft) O 16,1 C 31,5 C 9,8 km/h (2 Bft)
10.07.2016 16:00 31,8 C 33 % 1011,0 hPa 0,0 l/m 5,5 km/h (2 Bft) O 13,5 C 31,8 C 14,0 km/h (3 Bft)
10.07.2016 17:00 31,1 C 31 % 1010,8 hPa 0,0 l/m 5,1 km/h (1 Bft) O 12,0 C 31,0 C 12,8 km/h (3 Bft)
10.07.2016 18:00 30,8 C 33 % 1010,6 hPa 0,0 l/m 4,6 km/h (1 Bft) O 12,4 C 30,8 C 9,8 km/h (2 Bft)
10.07.2016 19:00 28,9 C 40 % 1010,3 hPa 0,0 l/m 4,4 km/h (1 Bft) O-NO 13,8 C 28,9 C 11,7 km/h (2 Bft)
10.07.2016 20:00 27,1 C 46 % 1010,3 hPa 0,0 l/m 3,4 km/h (1 Bft) O-NO 14,5 C 27,1 C 8,5 km/h (2 Bft)
10.07.2016 21:00 25,8 C 53 % 1010,3 hPa 0,0 l/m 3,1 km/h (1 Bft) O 15,4 C 25,8 C 7,2 km/h (2 Bft)
10.07.2016 22:00 22,5 C 62 % 1010,8 hPa 0,0 l/m 0,3 km/h (0 Bft) O 14,8 C 22,5 C 2,1 km/h (1 Bft)
10.07.2016 23:00 19,8 C 70 % 1011,1 hPa 0,0 l/m 0,6 km/h (0 Bft) O-SO 14,0 C 19,8 C 2,0 km/h (1 Bft)
Min-Datum _ 07.07.16 10.07.16 10.07.16 - 10.07.16 - 07.07.16 07.07.16 10.07.16
_ Min-Zeit 06:00 17:15 21:00 - 23:15 - 06:00 06:00 23:15
Minimum _ 6,8 C 29 % 1010,2 hPa - 0,0 km/h (0 Bft) - 6,1 C 6,8 C 0,0 km/h (0 Bft)
Max-Datum _ 10.07.16 07.07.16 04.07.16 10.07.16 05.07.16 - 10.07.16 10.07.16 09.07.16
_ Max-Zeit 16:35 07:05 00:14 23:00 12:28 - 15:05 16:35 15:15
Maximum _ 32,1 C 97 % 1022,9 hPa 0,0 l/m 14,5 km/h
O-NO (3 Bft)
- 17,2 C 32,1 C 22,5 km/h
O-NO (4 Bft)
Durchschnitt _ 19,2 C 65 % 1017,8 hPa #0,0 l/m 2,2 km/h (1 Bft) N 11,7 C 19,2 C 4,9 km/h (1 Bft)